sensor_id;sensor_type;location;lat;lon;timestamp;temperature;humidity
23869;DHT22;12115;47.128;15.422;2024-01-30T00:01:43;-2.10;92.50
23869;DHT22;12115;47.128;15.422;2024-01-30T00:04:09;-2.10;92.90
23869;DHT22;12115;47.128;15.422;2024-01-30T00:06:36;-2.10;93.70
23869;DHT22;12115;47.128;15.422;2024-01-30T00:09:02;-2.10;97.40
23869;DHT22;12115;47.128;15.422;2024-01-30T00:11:28;-2.10;99.40
23869;DHT22;12115;47.128;15.422;2024-01-30T00:13:54;-2.20;97.60
23869;DHT22;12115;47.128;15.422;2024-01-30T00:16:22;-2.20;97.30
23869;DHT22;12115;47.128;15.422;2024-01-30T00:18:53;-2.20;96.10
23869;DHT22;12115;47.128;15.422;2024-01-30T00:21:20;-2.20;95.50
23869;DHT22;12115;47.128;15.422;2024-01-30T00:23:46;-2.20;95.50
23869;DHT22;12115;47.128;15.422;2024-01-30T00:26:13;-2.20;95.00
23869;DHT22;12115;47.128;15.422;2024-01-30T00:28:41;-2.30;95.20
23869;DHT22;12115;47.128;15.422;2024-01-30T00:31:07;-2.30;96.70
23869;DHT22;12115;47.128;15.422;2024-01-30T00:33:33;-2.30;96.60
23869;DHT22;12115;47.128;15.422;2024-01-30T00:36:00;-2.20;96.10
23869;DHT22;12115;47.128;15.422;2024-01-30T00:38:26;-2.30;94.50
23869;DHT22;12115;47.128;15.422;2024-01-30T00:40:52;-2.30;94.30
23869;DHT22;12115;47.128;15.422;2024-01-30T00:43:18;-2.40;93.60
23869;DHT22;12115;47.128;15.422;2024-01-30T00:45:45;-2.40;94.00
23869;DHT22;12115;47.128;15.422;2024-01-30T00:48:12;-2.40;96.70
23869;DHT22;12115;47.128;15.422;2024-01-30T00:50:38;-2.40;96.60
23869;DHT22;12115;47.128;15.422;2024-01-30T00:53:04;-2.40;95.40
23869;DHT22;12115;47.128;15.422;2024-01-30T00:55:30;-2.50;95.40
23869;DHT22;12115;47.128;15.422;2024-01-30T00:57:56;-2.40;95.50
23869;DHT22;12115;47.128;15.422;2024-01-30T01:00:23;-2.50;95.00
23869;DHT22;12115;47.128;15.422;2024-01-30T01:02:55;-2.50;94.50
23869;DHT22;12115;47.128;15.422;2024-01-30T01:05:21;-2.50;93.80
23869;DHT22;12115;47.128;15.422;2024-01-30T01:07:47;-2.50;95.00
23869;DHT22;12115;47.128;15.422;2024-01-30T01:10:14;-2.60;96.40
23869;DHT22;12115;47.128;15.422;2024-01-30T01:12:41;-2.60;97.90
23869;DHT22;12115;47.128;15.422;2024-01-30T01:15:08;-2.60;97.60
23869;DHT22;12115;47.128;15.422;2024-01-30T01:17:36;-2.60;95.80
23869;DHT22;12115;47.128;15.422;2024-01-30T01:20:02;-2.60;95.50
23869;DHT22;12115;47.128;15.422;2024-01-30T01:22:29;-2.70;94.10
23869;DHT22;12115;47.128;15.422;2024-01-30T01:24:55;-2.70;92.90
23869;DHT22;12115;47.128;15.422;2024-01-30T01:27:22;-2.70;92.90
23869;DHT22;12115;47.128;15.422;2024-01-30T01:29:48;-2.80;93.80
23869;DHT22;12115;47.128;15.422;2024-01-30T01:32:14;-2.70;96.40
23869;DHT22;12115;47.128;15.422;2024-01-30T01:34:40;-2.70;97.50
23869;DHT22;12115;47.128;15.422;2024-01-30T01:37:06;-2.70;98.80
23869;DHT22;12115;47.128;15.422;2024-01-30T01:39:33;-2.80;96.50
23869;DHT22;12115;47.128;15.422;2024-01-30T01:41:59;-2.80;95.10
23869;DHT22;12115;47.128;15.422;2024-01-30T01:44:25;-2.80;95.10
23869;DHT22;12115;47.128;15.422;2024-01-30T01:46:51;-2.90;95.10
23869;DHT22;12115;47.128;15.422;2024-01-30T01:49:18;-2.80;97.20
23869;DHT22;12115;47.128;15.422;2024-01-30T01:51:45;-2.90;96.50
23869;DHT22;12115;47.128;15.422;2024-01-30T01:54:13;-2.90;95.40
23869;DHT22;12115;47.128;15.422;2024-01-30T01:56:40;-2.90;95.40
23869;DHT22;12115;47.128;15.422;2024-01-30T01:59:07;-2.90;95.40
23869;DHT22;12115;47.128;15.422;2024-01-30T02:01:34;-2.90;95.30
23869;DHT22;12115;47.128;15.422;2024-01-30T02:04:02;-3.00;95.90
23869;DHT22;12115;47.128;15.422;2024-01-30T02:06:28;-3.00;95.10
23869;DHT22;12115;47.128;15.422;2024-01-30T02:08:54;-3.00;95.00
23869;DHT22;12115;47.128;15.422;2024-01-30T02:11:21;-3.00;97.30
23869;DHT22;12115;47.128;15.422;2024-01-30T02:13:48;-3.00;96.90
23869;DHT22;12115;47.128;15.422;2024-01-30T02:16:14;-3.00;97.20
23869;DHT22;12115;47.128;15.422;2024-01-30T02:18:40;-3.00;96.80
23869;DHT22;12115;47.128;15.422;2024-01-30T02:21:14;-3.00;96.40
23869;DHT22;12115;47.128;15.422;2024-01-30T02:23:41;-3.00;96.10
23869;DHT22;12115;47.128;15.422;2024-01-30T02:26:07;-3.00;95.60
23869;DHT22;12115;47.128;15.422;2024-01-30T02:28:34;-3.10;96.30
23869;DHT22;12115;47.128;15.422;2024-01-30T02:31:00;-3.10;97.30
23869;DHT22;12115;47.128;15.422;2024-01-30T02:33:26;-3.20;95.40
23869;DHT22;12115;47.128;15.422;2024-01-30T02:35:52;-3.20;94.70
23869;DHT22;12115;47.128;15.422;2024-01-30T02:38:19;-3.20;96.50
23869;DHT22;12115;47.128;15.422;2024-01-30T02:40:45;-3.20;97.00
23869;DHT22;12115;47.128;15.422;2024-01-30T02:43:11;-3.20;96.70
23869;DHT22;12115;47.128;15.422;2024-01-30T02:45:38;-3.20;98.10
23869;DHT22;12115;47.128;15.422;2024-01-30T02:48:04;-3.20;98.10
23869;DHT22;12115;47.128;15.422;2024-01-30T02:50:30;-3.20;98.60
23869;DHT22;12115;47.128;15.422;2024-01-30T02:52:56;-3.20;96.70
23869;DHT22;12115;47.128;15.422;2024-01-30T02:55:22;-3.20;97.10
23869;DHT22;12115;47.128;15.422;2024-01-30T02:57:49;-3.20;96.70
23869;DHT22;12115;47.128;15.422;2024-01-30T03:00:15;-3.20;97.10
23869;DHT22;12115;47.128;15.422;2024-01-30T03:02:41;-3.30;96.30
23869;DHT22;12115;47.128;15.422;2024-01-30T03:05:07;-3.30;98.80
23869;DHT22;12115;47.128;15.422;2024-01-30T03:07:34;-3.30;98.50
23869;DHT22;12115;47.128;15.422;2024-01-30T03:10:00;-3.30;96.40
23869;DHT22;12115;47.128;15.422;2024-01-30T03:12:26;-3.30;96.80
23869;DHT22;12115;47.128;15.422;2024-01-30T03:14:53;-3.40;96.00
23869;DHT22;12115;47.128;15.422;2024-01-30T03:17:19;-3.40;96.40
23869;DHT22;12115;47.128;15.422;2024-01-30T03:19:45;-3.40;96.40
23869;DHT22;12115;47.128;15.422;2024-01-30T03:22:11;-3.40;97.60
23869;DHT22;12115;47.128;15.422;2024-01-30T03:24:37;-3.40;96.20
23869;DHT22;12115;47.128;15.422;2024-01-30T03:27:04;-3.40;96.20
23869;DHT22;12115;47.128;15.422;2024-01-30T03:29:30;-3.50;96.20
23869;DHT22;12115;47.128;15.422;2024-01-30T03:31:56;-3.50;98.50
23869;DHT22;12115;47.128;15.422;2024-01-30T03:34:22;-3.50;99.60
23869;DHT22;12115;47.128;15.422;2024-01-30T03:36:49;-3.50;99.40
23869;DHT22;12115;47.128;15.422;2024-01-30T03:39:15;-3.50;98.70
23869;DHT22;12115;47.128;15.422;2024-01-30T03:41:44;-3.50;98.20
23869;DHT22;12115;47.128;15.422;2024-01-30T03:44:10;-3.50;96.70
23869;DHT22;12115;47.128;15.422;2024-01-30T03:46:37;-3.50;96.80
23869;DHT22;12115;47.128;15.422;2024-01-30T03:49:03;-3.50;98.30
23869;DHT22;12115;47.128;15.422;2024-01-30T03:51:29;-3.50;99.60
23869;DHT22;12115;47.128;15.422;2024-01-30T03:53:56;-3.60;98.60
23869;DHT22;12115;47.128;15.422;2024-01-30T03:56:22;-3.60;97.70
23869;DHT22;12115;47.128;15.422;2024-01-30T03:58:48;-3.60;97.70
23869;DHT22;12115;47.128;15.422;2024-01-30T04:01:14;-3.60;97.40
23869;DHT22;12115;47.128;15.422;2024-01-30T04:03:41;-3.70;96.20
23869;DHT22;12115;47.128;15.422;2024-01-30T04:06:07;-3.70;96.50
23869;DHT22;12115;47.128;15.422;2024-01-30T04:08:34;-3.70;98.60
23869;DHT22;12115;47.128;15.422;2024-01-30T04:11:06;-3.70;99.50
23869;DHT22;12115;47.128;15.422;2024-01-30T04:13:33;-3.70;98.30
23869;DHT22;12115;47.128;15.422;2024-01-30T04:16:00;-3.70;99.50
23869;DHT22;12115;47.128;15.422;2024-01-30T04:18:29;-3.70;99.60
23869;DHT22;12115;47.128;15.422;2024-01-30T04:20:55;-3.70;98.60
23869;DHT22;12115;47.128;15.422;2024-01-30T04:23:22;-3.70;98.90
23869;DHT22;12115;47.128;15.422;2024-01-30T04:25:48;-3.70;98.60
23869;DHT22;12115;47.128;15.422;2024-01-30T04:28:14;-3.70;97.40
23869;DHT22;12115;47.128;15.422;2024-01-30T04:30:40;-3.80;96.10
23869;DHT22;12115;47.128;15.422;2024-01-30T04:33:07;-3.80;97.50
23869;DHT22;12115;47.128;15.422;2024-01-30T04:35:33;-3.80;97.80
23869;DHT22;12115;47.128;15.422;2024-01-30T04:37:59;-3.80;98.00
23869;DHT22;12115;47.128;15.422;2024-01-30T04:40:25;-3.80;98.10
23869;DHT22;12115;47.128;15.422;2024-01-30T04:42:52;-3.80;98.70
23869;DHT22;12115;47.128;15.422;2024-01-30T04:45:18;-3.80;99.00
23869;DHT22;12115;47.128;15.422;2024-01-30T04:47:44;-3.90;99.30
23869;DHT22;12115;47.128;15.422;2024-01-30T04:50:10;-3.90;99.90
23869;DHT22;12115;47.128;15.422;2024-01-30T04:52:37;-3.90;99.90
23869;DHT22;12115;47.128;15.422;2024-01-30T04:55:03;-3.90;98.50
23869;DHT22;12115;47.128;15.422;2024-01-30T04:57:29;-4.00;97.40
23869;DHT22;12115;47.128;15.422;2024-01-30T04:59:57;-3.90;97.20
23869;DHT22;12115;47.128;15.422;2024-01-30T05:02:23;-4.00;98.50
23869;DHT22;12115;47.128;15.422;2024-01-30T05:04:49;-3.90;98.90
23869;DHT22;12115;47.128;15.422;2024-01-30T05:07:15;-4.00;98.40
23869;DHT22;12115;47.128;15.422;2024-01-30T05:09:41;-4.00;98.10
23869;DHT22;12115;47.128;15.422;2024-01-30T05:12:07;-4.00;98.40
23869;DHT22;12115;47.128;15.422;2024-01-30T05:14:34;-4.00;98.50
23869;DHT22;12115;47.128;15.422;2024-01-30T05:17:00;-4.00;99.30
23869;DHT22;12115;47.128;15.422;2024-01-30T05:19:26;-4.00;99.30
23869;DHT22;12115;47.128;15.422;2024-01-30T05:21:52;-4.00;99.60
23869;DHT22;12115;47.128;15.422;2024-01-30T05:24:19;-4.00;99.20
23869;DHT22;12115;47.128;15.422;2024-01-30T05:26:47;-4.10;98.10
23869;DHT22;12115;47.128;15.422;2024-01-30T05:29:14;-4.20;96.70
23869;DHT22;12115;47.128;15.422;2024-01-30T05:31:40;-4.20;96.40
23869;DHT22;12115;47.128;15.422;2024-01-30T05:34:06;-4.20;96.60
23869;DHT22;12115;47.128;15.422;2024-01-30T05:36:32;-4.20;97.00
23869;DHT22;12115;47.128;15.422;2024-01-30T05:38:59;-4.20;97.40
23869;DHT22;12115;47.128;15.422;2024-01-30T05:41:25;-4.20;97.30
23869;DHT22;12115;47.128;15.422;2024-01-30T05:43:54;-4.20;97.30
23869;DHT22;12115;47.128;15.422;2024-01-30T05:46:20;-4.20;98.30
23869;DHT22;12115;47.128;15.422;2024-01-30T05:48:51;-4.20;98.40
23869;DHT22;12115;47.128;15.422;2024-01-30T05:51:17;-4.20;99.20
23869;DHT22;12115;47.128;15.422;2024-01-30T05:53:43;-4.20;98.40
23869;DHT22;12115;47.128;15.422;2024-01-30T05:56:09;-4.20;99.70
23869;DHT22;12115;47.128;15.422;2024-01-30T05:58:36;-4.20;99.20
23869;DHT22;12115;47.128;15.422;2024-01-30T06:01:06;-4.20;99.20
23869;DHT22;12115;47.128;15.422;2024-01-30T06:03:33;-4.20;99.90
23869;DHT22;12115;47.128;15.422;2024-01-30T06:06:00;-4.20;98.80
23869;DHT22;12115;47.128;15.422;2024-01-30T06:08:26;-4.20;99.90
23869;DHT22;12115;47.128;15.422;2024-01-30T06:10:52;-4.20;99.60
23869;DHT22;12115;47.128;15.422;2024-01-30T06:13:18;-4.20;98.80
23869;DHT22;12115;47.128;15.422;2024-01-30T06:15:45;-4.20;99.40
23869;DHT22;12115;47.128;15.422;2024-01-30T06:18:11;-4.20;99.90
23869;DHT22;12115;47.128;15.422;2024-01-30T06:20:37;-4.20;99.20
23869;DHT22;12115;47.128;15.422;2024-01-30T06:23:04;-4.20;99.90
23869;DHT22;12115;47.128;15.422;2024-01-30T06:25:30;-4.20;99.90
23869;DHT22;12115;47.128;15.422;2024-01-30T06:27:56;-4.20;99.90
23869;DHT22;12115;47.128;15.422;2024-01-30T06:30:23;-4.20;99.90
23869;DHT22;12115;47.128;15.422;2024-01-30T06:32:49;-4.20;99.90
23869;DHT22;12115;47.128;15.422;2024-01-30T06:35:16;-4.20;99.60
23869;DHT22;12115;47.128;15.422;2024-01-30T06:37:43;-4.20;99.90
23869;DHT22;12115;47.128;15.422;2024-01-30T06:40:09;-4.20;99.70
23869;DHT22;12115;47.128;15.422;2024-01-30T06:42:36;-4.20;99.90
23869;DHT22;12115;47.128;15.422;2024-01-30T06:45:02;-4.20;99.90
23869;DHT22;12115;47.128;15.422;2024-01-30T06:47:28;-4.20;99.80
23869;DHT22;12115;47.128;15.422;2024-01-30T06:49:57;-4.20;99.50
23869;DHT22;12115;47.128;15.422;2024-01-30T06:52:23;-4.20;99.70
23869;DHT22;12115;47.128;15.422;2024-01-30T06:54:49;-4.20;99.90
23869;DHT22;12115;47.128;15.422;2024-01-30T06:57:15;-4.10;99.80
23869;DHT22;12115;47.128;15.422;2024-01-30T06:59:41;-4.10;99.90
23869;DHT22;12115;47.128;15.422;2024-01-30T07:02:10;-4.00;99.90
23869;DHT22;12115;47.128;15.422;2024-01-30T07:04:37;-3.90;99.90
23869;DHT22;12115;47.128;15.422;2024-01-30T07:07:03;-3.80;99.90
23869;DHT22;12115;47.128;15.422;2024-01-30T07:09:31;-3.50;99.90
23869;DHT22;12115;47.128;15.422;2024-01-30T07:11:58;-3.40;99.90
23869;DHT22;12115;47.128;15.422;2024-01-30T07:14:24;-3.10;99.90
23869;DHT22;12115;47.128;15.422;2024-01-30T07:16:51;-2.90;99.80
23869;DHT22;12115;47.128;15.422;2024-01-30T07:19:17;-2.50;99.90
23869;DHT22;12115;47.128;15.422;2024-01-30T07:21:43;-2.20;99.90
23869;DHT22;12115;47.128;15.422;2024-01-30T07:24:10;-1.80;99.90
23869;DHT22;12115;47.128;15.422;2024-01-30T07:26:36;-1.50;99.90
23869;DHT22;12115;47.128;15.422;2024-01-30T07:29:02;-1.30;99.90
23869;DHT22;12115;47.128;15.422;2024-01-30T07:31:29;-1.00;99.90
23869;DHT22;12115;47.128;15.422;2024-01-30T08:33:15;6.70;92.30
23869;DHT22;12115;47.128;15.422;2024-01-30T08:39:14;7.90;91.00
23869;DHT22;12115;47.128;15.422;2024-01-30T08:41:40;8.30;90.50
23869;DHT22;12115;47.128;15.422;2024-01-30T08:44:07;8.70;90.00
23869;DHT22;12115;47.128;15.422;2024-01-30T08:46:33;9.10;87.30
23869;DHT22;12115;47.128;15.422;2024-01-30T08:49:00;9.30;86.30
23869;DHT22;12115;47.128;15.422;2024-01-30T08:51:26;9.50;85.30
23869;DHT22;12115;47.128;15.422;2024-01-30T08:53:52;9.40;83.70
23869;DHT22;12115;47.128;15.422;2024-01-30T08:56:20;9.70;84.70
23869;DHT22;12115;47.128;15.422;2024-01-30T08:58:46;9.90;83.50
23869;DHT22;12115;47.128;15.422;2024-01-30T09:01:12;10.10;81.90
23869;DHT22;12115;47.128;15.422;2024-01-30T09:03:39;10.10;82.80
23869;DHT22;12115;47.128;15.422;2024-01-30T09:06:10;10.30;82.20
23869;DHT22;12115;47.128;15.422;2024-01-30T09:08:38;10.30;81.30
23869;DHT22;12115;47.128;15.422;2024-01-30T09:11:14;10.50;80.40
23869;DHT22;12115;47.128;15.422;2024-01-30T09:13:41;10.50;81.30
23869;DHT22;12115;47.128;15.422;2024-01-30T09:16:08;10.80;80.50
23869;DHT22;12115;47.128;15.422;2024-01-30T09:18:34;11.00;79.30
23869;DHT22;12115;47.128;15.422;2024-01-30T09:21:00;11.20;78.90
23869;DHT22;12115;47.128;15.422;2024-01-30T09:23:27;11.50;77.80
23869;DHT22;12115;47.128;15.422;2024-01-30T09:25:54;11.80;77.10
23869;DHT22;12115;47.128;15.422;2024-01-30T09:28:20;11.80;76.50
23869;DHT22;12115;47.128;15.422;2024-01-30T09:30:49;12.00;75.60
23869;DHT22;12115;47.128;15.422;2024-01-30T09:33:15;12.00;73.40
23869;DHT22;12115;47.128;15.422;2024-01-30T09:35:42;12.20;74.90
23869;DHT22;12115;47.128;15.422;2024-01-30T09:38:08;12.70;74.40
23869;DHT22;12115;47.128;15.422;2024-01-30T09:40:35;12.90;72.40
23869;DHT22;12115;47.128;15.422;2024-01-30T09:43:01;12.90;72.80
23869;DHT22;12115;47.128;15.422;2024-01-30T09:45:28;13.00;72.00
23869;DHT22;12115;47.128;15.422;2024-01-30T09:47:55;13.00;71.40
23869;DHT22;12115;47.128;15.422;2024-01-30T09:50:22;13.00;70.60
23869;DHT22;12115;47.128;15.422;2024-01-30T09:52:48;12.50;70.60
23869;DHT22;12115;47.128;15.422;2024-01-30T09:55:15;12.60;71.00
23869;DHT22;12115;47.128;15.422;2024-01-30T09:57:42;13.10;71.30
23869;DHT22;12115;47.128;15.422;2024-01-30T10:00:10;13.50;70.10
23869;DHT22;12115;47.128;15.422;2024-01-30T10:02:40;13.60;68.70
23869;DHT22;12115;47.128;15.422;2024-01-30T10:05:08;13.60;69.20
23869;DHT22;12115;47.128;15.422;2024-01-30T10:07:34;13.50;69.90
23869;DHT22;12115;47.128;15.422;2024-01-30T10:10:01;14.00;68.10
23869;DHT22;12115;47.128;15.422;2024-01-30T10:12:27;14.30;67.20
23869;DHT22;12115;47.128;15.422;2024-01-30T10:14:55;13.80;66.50
23869;DHT22;12115;47.128;15.422;2024-01-30T10:17:24;13.80;67.20
23869;DHT22;12115;47.128;15.422;2024-01-30T10:19:59;13.70;66.50
23869;DHT22;12115;47.128;15.422;2024-01-30T10:22:26;14.00;67.00
23869;DHT22;12115;47.128;15.422;2024-01-30T10:24:53;13.60;66.80
23869;DHT22;12115;47.128;15.422;2024-01-30T10:27:25;14.30;66.50
23869;DHT22;12115;47.128;15.422;2024-01-30T10:29:52;14.50;65.60
23869;DHT22;12115;47.128;15.422;2024-01-30T10:32:19;15.10;65.80
23869;DHT22;12115;47.128;15.422;2024-01-30T10:34:45;14.80;63.40
23869;DHT22;12115;47.128;15.422;2024-01-30T10:37:12;14.90;63.90
23869;DHT22;12115;47.128;15.422;2024-01-30T10:39:41;14.80;63.60
23869;DHT22;12115;47.128;15.422;2024-01-30T10:42:17;14.90;63.20
23869;DHT22;12115;47.128;15.422;2024-01-30T10:47:20;15.70;61.80
23869;DHT22;12115;47.128;15.422;2024-01-30T10:49:47;15.40;61.90
23869;DHT22;12115;47.128;15.422;2024-01-30T10:52:14;15.60;61.00
23869;DHT22;12115;47.128;15.422;2024-01-30T10:54:44;16.10;61.30
23869;DHT22;12115;47.128;15.422;2024-01-30T10:57:11;16.40;60.50
23869;DHT22;12115;47.128;15.422;2024-01-30T10:59:39;16.20;59.30
23869;DHT22;12115;47.128;15.422;2024-01-30T11:02:05;16.50;59.80
23869;DHT22;12115;47.128;15.422;2024-01-30T11:04:40;16.30;58.90
23869;DHT22;12115;47.128;15.422;2024-01-30T11:07:26;16.00;60.50
23869;DHT22;12115;47.128;15.422;2024-01-30T11:12:32;17.00;58.50
23869;DHT22;12115;47.128;15.422;2024-01-30T11:15:06;17.50;58.50
23869;DHT22;12115;47.128;15.422;2024-01-30T11:20:29;18.20;56.60
23869;DHT22;12115;47.128;15.422;2024-01-30T11:22:59;18.70;56.20
23869;DHT22;12115;47.128;15.422;2024-01-30T11:25:28;18.80;54.90
23869;DHT22;12115;47.128;15.422;2024-01-30T11:27:55;18.70;55.20
23869;DHT22;12115;47.128;15.422;2024-01-30T11:30:28;18.80;55.40
23869;DHT22;12115;47.128;15.422;2024-01-30T11:35:31;18.70;55.40
23869;DHT22;12115;47.128;15.422;2024-01-30T11:37:58;18.40;55.70
23869;DHT22;12115;47.128;15.422;2024-01-30T11:40:30;18.30;55.90
23869;DHT22;12115;47.128;15.422;2024-01-30T11:42:59;18.90;54.50
23869;DHT22;12115;47.128;15.422;2024-01-30T11:45:26;18.50;54.60
23869;DHT22;12115;47.128;15.422;2024-01-30T11:47:54;17.50;56.10
23869;DHT22;12115;47.128;15.422;2024-01-30T11:50:20;16.20;57.80
23869;DHT22;12115;47.128;15.422;2024-01-30T11:52:50;14.70;59.60
23869;DHT22;12115;47.128;15.422;2024-01-30T11:55:16;13.90;61.80
23869;DHT22;12115;47.128;15.422;2024-01-30T11:57:43;13.40;63.10
23869;DHT22;12115;47.128;15.422;2024-01-30T12:00:16;13.10;64.30
23869;DHT22;12115;47.128;15.422;2024-01-30T12:02:43;12.70;65.00
23869;DHT22;12115;47.128;15.422;2024-01-30T12:05:10;12.30;66.30
23869;DHT22;12115;47.128;15.422;2024-01-30T12:07:36;11.90;67.20
23869;DHT22;12115;47.128;15.422;2024-01-30T12:10:03;11.80;67.60
23869;DHT22;12115;47.128;15.422;2024-01-30T12:12:32;11.50;68.70
23869;DHT22;12115;47.128;15.422;2024-01-30T12:14:58;11.50;68.80
23869;DHT22;12115;47.128;15.422;2024-01-30T12:17:34;11.30;69.80
23869;DHT22;12115;47.128;15.422;2024-01-30T12:22:46;10.80;70.90
23869;DHT22;12115;47.128;15.422;2024-01-30T12:27:42;10.60;72.10
23869;DHT22;12115;47.128;15.422;2024-01-30T12:30:10;10.40;72.40
23869;DHT22;12115;47.128;15.422;2024-01-30T12:32:37;10.30;72.70
23869;DHT22;12115;47.128;15.422;2024-01-30T12:35:10;10.20;72.90
23869;DHT22;12115;47.128;15.422;2024-01-30T12:37:38;10.10;73.50
23869;DHT22;12115;47.128;15.422;2024-01-30T12:40:05;10.00;73.30
23869;DHT22;12115;47.128;15.422;2024-01-30T12:42:35;9.80;74.00
23869;DHT22;12115;47.128;15.422;2024-01-30T12:45:23;9.90;73.50
23869;DHT22;12115;47.128;15.422;2024-01-30T12:47:51;10.00;73.20
23869;DHT22;12115;47.128;15.422;2024-01-30T13:23:17;8.70;77.20
23869;DHT22;12115;47.128;15.422;2024-01-30T13:26:10;8.70;77.10
23869;DHT22;12115;47.128;15.422;2024-01-30T13:29:09;8.60;77.00
23869;DHT22;12115;47.128;15.422;2024-01-30T13:32:24;8.70;76.80
23869;DHT22;12115;47.128;15.422;2024-01-30T13:35:11;8.60;77.50
23869;DHT22;12115;47.128;15.422;2024-01-30T13:38:03;8.60;77.30
23869;DHT22;12115;47.128;15.422;2024-01-30T13:40:51;8.60;77.50
23869;DHT22;12115;47.128;15.422;2024-01-30T13:44:11;8.60;77.10
23869;DHT22;12115;47.128;15.422;2024-01-30T13:47:34;8.60;77.30
23869;DHT22;12115;47.128;15.422;2024-01-30T13:50:02;8.50;77.60
23869;DHT22;12115;47.128;15.422;2024-01-30T13:52:30;8.40;78.00
23869;DHT22;12115;47.128;15.422;2024-01-30T13:55:16;8.40;78.20
23869;DHT22;12115;47.128;15.422;2024-01-30T13:57:48;8.30;78.40
23869;DHT22;12115;47.128;15.422;2024-01-30T14:00:41;8.20;78.70
23869;DHT22;12115;47.128;15.422;2024-01-30T14:03:11;8.20;78.80
23869;DHT22;12115;47.128;15.422;2024-01-30T14:06:02;8.20;78.60
23869;DHT22;12115;47.128;15.422;2024-01-30T14:09:30;8.20;78.60
23869;DHT22;12115;47.128;15.422;2024-01-30T14:11:58;8.20;78.30
23869;DHT22;12115;47.128;15.422;2024-01-30T14:14:25;8.20;79.10
23869;DHT22;12115;47.128;15.422;2024-01-30T14:16:51;8.10;79.50
23869;DHT22;12115;47.128;15.422;2024-01-30T14:19:22;8.00;79.60
23869;DHT22;12115;47.128;15.422;2024-01-30T14:21:53;8.10;79.40
23869;DHT22;12115;47.128;15.422;2024-01-30T14:24:19;8.00;79.80
23869;DHT22;12115;47.128;15.422;2024-01-30T14:26:46;7.90;80.50
23869;DHT22;12115;47.128;15.422;2024-01-30T14:29:13;7.90;80.80
23869;DHT22;12115;47.128;15.422;2024-01-30T14:31:39;7.90;80.70
23869;DHT22;12115;47.128;15.422;2024-01-30T14:34:05;7.90;80.50
23869;DHT22;12115;47.128;15.422;2024-01-30T14:36:32;7.90;80.50
23869;DHT22;12115;47.128;15.422;2024-01-30T14:38:58;7.80;81.30
23869;DHT22;12115;47.128;15.422;2024-01-30T14:41:24;7.80;81.10
23869;DHT22;12115;47.128;15.422;2024-01-30T14:43:50;7.80;81.10
23869;DHT22;12115;47.128;15.422;2024-01-30T14:46:16;7.80;81.10
23869;DHT22;12115;47.128;15.422;2024-01-30T14:48:43;7.70;81.80
23869;DHT22;12115;47.128;15.422;2024-01-30T14:51:09;7.70;81.70
23869;DHT22;12115;47.128;15.422;2024-01-30T14:53:36;7.60;81.90
23869;DHT22;12115;47.128;15.422;2024-01-30T14:56:03;7.60;81.60
23869;DHT22;12115;47.128;15.422;2024-01-30T14:58:29;7.60;81.80
23869;DHT22;12115;47.128;15.422;2024-01-30T15:00:56;7.60;81.50
23869;DHT22;12115;47.128;15.422;2024-01-30T15:03:22;7.60;81.90
23869;DHT22;12115;47.128;15.422;2024-01-30T15:05:51;7.60;81.70
23869;DHT22;12115;47.128;15.422;2024-01-30T15:08:18;7.60;81.80
23869;DHT22;12115;47.128;15.422;2024-01-30T15:10:44;7.50;82.00
23869;DHT22;12115;47.128;15.422;2024-01-30T15:13:11;7.40;82.20
23869;DHT22;12115;47.128;15.422;2024-01-30T15:15:38;7.40;82.40
23869;DHT22;12115;47.128;15.422;2024-01-30T15:18:08;7.30;82.80
23869;DHT22;12115;47.128;15.422;2024-01-30T15:20:37;7.30;83.00
23869;DHT22;12115;47.128;15.422;2024-01-30T15:23:03;7.20;82.90
23869;DHT22;12115;47.128;15.422;2024-01-30T15:25:30;7.10;83.00
23869;DHT22;12115;47.128;15.422;2024-01-30T15:27:56;7.00;83.70
23869;DHT22;12115;47.128;15.422;2024-01-30T15:30:23;7.00;83.40
23869;DHT22;12115;47.128;15.422;2024-01-30T15:32:52;6.90;83.70
23869;DHT22;12115;47.128;15.422;2024-01-30T15:35:19;6.80;84.20
23869;DHT22;12115;47.128;15.422;2024-01-30T15:37:46;6.70;84.20
23869;DHT22;12115;47.128;15.422;2024-01-30T15:40:14;6.60;84.50
23869;DHT22;12115;47.128;15.422;2024-01-30T15:42:40;6.60;84.90
23869;DHT22;12115;47.128;15.422;2024-01-30T15:45:09;6.50;85.20
23869;DHT22;12115;47.128;15.422;2024-01-30T15:47:36;6.40;85.20
23869;DHT22;12115;47.128;15.422;2024-01-30T15:50:03;6.40;85.50
23869;DHT22;12115;47.128;15.422;2024-01-30T15:52:30;6.30;86.00
23869;DHT22;12115;47.128;15.422;2024-01-30T15:54:57;6.10;86.50
23869;DHT22;12115;47.128;15.422;2024-01-30T15:57:23;6.00;86.70
23869;DHT22;12115;47.128;15.422;2024-01-30T15:59:52;5.90;87.00
23869;DHT22;12115;47.128;15.422;2024-01-30T16:02:18;5.80;87.20
23869;DHT22;12115;47.128;15.422;2024-01-30T16:04:46;5.60;88.00
23869;DHT22;12115;47.128;15.422;2024-01-30T16:07:14;5.50;88.20
23869;DHT22;12115;47.128;15.422;2024-01-30T16:09:40;5.40;88.40
23869;DHT22;12115;47.128;15.422;2024-01-30T16:12:07;5.30;88.40
23869;DHT22;12115;47.128;15.422;2024-01-30T16:14:33;5.30;88.50
23869;DHT22;12115;47.128;15.422;2024-01-30T16:17:02;5.20;88.60
23869;DHT22;12115;47.128;15.422;2024-01-30T16:19:28;5.10;88.70
23869;DHT22;12115;47.128;15.422;2024-01-30T16:21:55;4.90;89.50
23869;DHT22;12115;47.128;15.422;2024-01-30T16:24:21;4.80;90.00
23869;DHT22;12115;47.128;15.422;2024-01-30T16:26:49;4.80;89.80
23869;DHT22;12115;47.128;15.422;2024-01-30T16:29:15;4.70;90.10
23869;DHT22;12115;47.128;15.422;2024-01-30T16:31:42;4.50;90.50
23869;DHT22;12115;47.128;15.422;2024-01-30T16:34:08;4.50;90.50
23869;DHT22;12115;47.128;15.422;2024-01-30T16:36:35;4.30;90.50
23869;DHT22;12115;47.128;15.422;2024-01-30T16:39:01;4.20;90.60
23869;DHT22;12115;47.128;15.422;2024-01-30T16:41:29;4.20;90.60
23869;DHT22;12115;47.128;15.422;2024-01-30T16:43:55;4.20;90.60
23869;DHT22;12115;47.128;15.422;2024-01-30T16:46:22;4.10;90.60
23869;DHT22;12115;47.128;15.422;2024-01-30T16:48:48;3.90;91.00
23869;DHT22;12115;47.128;15.422;2024-01-30T16:51:18;3.80;91.40
23869;DHT22;12115;47.128;15.422;2024-01-30T16:53:44;3.70;91.30
23869;DHT22;12115;47.128;15.422;2024-01-30T16:56:11;3.60;91.50
23869;DHT22;12115;47.128;15.422;2024-01-30T16:58:37;3.60;91.40
23869;DHT22;12115;47.128;15.422;2024-01-30T17:01:03;3.60;91.40
23869;DHT22;12115;47.128;15.422;2024-01-30T17:03:30;3.60;91.30
23869;DHT22;12115;47.128;15.422;2024-01-30T17:05:56;3.50;91.40
23869;DHT22;12115;47.128;15.422;2024-01-30T17:08:24;3.40;91.40
23869;DHT22;12115;47.128;15.422;2024-01-30T17:10:50;3.40;91.50
23869;DHT22;12115;47.128;15.422;2024-01-30T17:13:17;3.30;91.70
23869;DHT22;12115;47.128;15.422;2024-01-30T17:15:43;3.30;91.80
23869;DHT22;12115;47.128;15.422;2024-01-30T17:18:09;3.20;92.10